sensor_id;sensor_type;location;lat;lon;timestamp;P1;durP1;ratioP1;P2;durP2;ratioP2
60722;SDS011;46574;52.818;6.516;2022-12-24T00:00:17;33.63;;;17.15;;
60722;SDS011;46574;52.818;6.516;2022-12-24T00:02:43;30.30;;;17.13;;
60722;SDS011;46574;52.818;6.516;2022-12-24T00:05:09;30.27;;;16.98;;
60722;SDS011;46574;52.818;6.516;2022-12-24T00:07:35;34.50;;;17.75;;
60722;SDS011;46574;52.818;6.516;2022-12-24T00:10:01;36.92;;;17.90;;
60722;SDS011;46574;52.818;6.516;2022-12-24T00:12:27;29.75;;;17.10;;
60722;SDS011;46574;52.818;6.516;2022-12-24T00:14:52;35.08;;;17.55;;
60722;SDS011;46574;52.818;6.516;2022-12-24T00:17:18;34.25;;;17.83;;
60722;SDS011;46574;52.818;6.516;2022-12-24T00:19:43;33.10;;;17.55;;
60722;SDS011;46574;52.818;6.516;2022-12-24T00:22:09;31.02;;;17.00;;
60722;SDS011;46574;52.818;6.516;2022-12-24T00:24:35;41.38;;;19.27;;
60722;SDS011;46574;52.818;6.516;2022-12-24T00:27:00;34.63;;;18.52;;
60722;SDS011;46574;52.818;6.516;2022-12-24T00:29:27;38.00;;;19.40;;
60722;SDS011;46574;52.818;6.516;2022-12-24T00:31:53;34.58;;;18.52;;
60722;SDS011;46574;52.818;6.516;2022-12-24T00:34:18;39.20;;;20.85;;
60722;SDS011;46574;52.818;6.516;2022-12-24T00:36:46;41.22;;;20.85;;
60722;SDS011;46574;52.818;6.516;2022-12-24T00:39:12;37.83;;;19.08;;
60722;SDS011;46574;52.818;6.516;2022-12-24T00:41:37;37.88;;;21.00;;
60722;SDS011;46574;52.818;6.516;2022-12-24T00:44:04;38.20;;;21.45;;
60722;SDS011;46574;52.818;6.516;2022-12-24T00:46:31;40.42;;;21.42;;
60722;SDS011;46574;52.818;6.516;2022-12-24T00:48:58;41.53;;;21.63;;
60722;SDS011;46574;52.818;6.516;2022-12-24T00:51:24;45.85;;;23.17;;
60722;SDS011;46574;52.818;6.516;2022-12-24T00:53:50;46.67;;;22.50;;
60722;SDS011;46574;52.818;6.516;2022-12-24T00:56:16;47.75;;;22.42;;
60722;SDS011;46574;52.818;6.516;2022-12-24T00:58:43;46.45;;;23.15;;
60722;SDS011;46574;52.818;6.516;2022-12-24T01:01:09;48.50;;;22.60;;
60722;SDS011;46574;52.818;6.516;2022-12-24T01:03:35;47.45;;;23.10;;
60722;SDS011;46574;52.818;6.516;2022-12-24T01:06:05;37.90;;;19.98;;
60722;SDS011;46574;52.818;6.516;2022-12-24T01:08:33;44.78;;;21.35;;
60722;SDS011;46574;52.818;6.516;2022-12-24T01:11:00;42.55;;;20.45;;
60722;SDS011;46574;52.818;6.516;2022-12-24T01:13:27;38.85;;;19.42;;
60722;SDS011;46574;52.818;6.516;2022-12-24T01:15:52;33.80;;;18.48;;
60722;SDS011;46574;52.818;6.516;2022-12-24T01:18:18;33.97;;;17.52;;
60722;SDS011;46574;52.818;6.516;2022-12-24T01:20:44;36.28;;;16.67;;
60722;SDS011;46574;52.818;6.516;2022-12-24T01:23:10;22.30;;;13.13;;
60722;SDS011;46574;52.818;6.516;2022-12-24T01:25:36;23.27;;;12.82;;
60722;SDS011;46574;52.818;6.516;2022-12-24T01:28:03;21.30;;;13.38;;
60722;SDS011;46574;52.818;6.516;2022-12-24T01:30:29;19.92;;;12.00;;
60722;SDS011;46574;52.818;6.516;2022-12-24T01:32:54;19.63;;;12.30;;
60722;SDS011;46574;52.818;6.516;2022-12-24T01:35:20;19.10;;;12.38;;
60722;SDS011;46574;52.818;6.516;2022-12-24T01:37:46;16.50;;;10.80;;
60722;SDS011;46574;52.818;6.516;2022-12-24T01:40:13;18.35;;;11.02;;
60722;SDS011;46574;52.818;6.516;2022-12-24T01:42:59;17.33;;;11.40;;
60722;SDS011;46574;52.818;6.516;2022-12-24T01:45:45;17.25;;;10.85;;
60722;SDS011;46574;52.818;6.516;2022-12-24T01:50:57;17.75;;;10.05;;
60722;SDS011;46574;52.818;6.516;2022-12-24T01:53:28;16.75;;;10.52;;
60722;SDS011;46574;52.818;6.516;2022-12-24T01:55:55;19.70;;;10.65;;
60722;SDS011;46574;52.818;6.516;2022-12-24T01:58:22;18.23;;;10.75;;
60722;SDS011;46574;52.818;6.516;2022-12-24T02:00:50;20.45;;;10.98;;
60722;SDS011;46574;52.818;6.516;2022-12-24T02:03:16;18.65;;;10.52;;
60722;SDS011;46574;52.818;6.516;2022-12-24T02:05:47;19.75;;;10.73;;
60722;SDS011;46574;52.818;6.516;2022-12-24T02:08:14;20.35;;;11.02;;
60722;SDS011;46574;52.818;6.516;2022-12-24T02:10:41;17.67;;;10.18;;
60722;SDS011;46574;52.818;6.516;2022-12-24T02:13:07;17.23;;;10.20;;
60722;SDS011;46574;52.818;6.516;2022-12-24T02:15:38;16.50;;;10.25;;
60722;SDS011;46574;52.818;6.516;2022-12-24T02:18:21;16.08;;;9.30;;
60722;SDS011;46574;52.818;6.516;2022-12-24T02:26:57;14.18;;;5.57;;
60722;SDS011;46574;52.818;6.516;2022-12-24T02:32:29;20.83;;;5.07;;
60722;SDS011;46574;52.818;6.516;2022-12-24T02:35:06;26.88;;;5.63;;
60722;SDS011;46574;52.818;6.516;2022-12-24T02:37:37;27.05;;;6.03;;
60722;SDS011;46574;52.818;6.516;2022-12-24T02:40:20;28.05;;;6.07;;
60722;SDS011;46574;52.818;6.516;2022-12-24T02:43:12;24.88;;;5.65;;
60722;SDS011;46574;52.818;6.516;2022-12-24T02:45:41;30.20;;;5.40;;
60722;SDS011;46574;52.818;6.516;2022-12-24T02:48:13;33.35;;;6.68;;
60722;SDS011;46574;52.818;6.516;2022-12-24T02:50:53;27.77;;;5.85;;
60722;SDS011;46574;52.818;6.516;2022-12-24T02:53:19;25.50;;;6.03;;
60722;SDS011;46574;52.818;6.516;2022-12-24T03:08:57;29.08;;;6.20;;
60722;SDS011;46574;52.818;6.516;2022-12-24T03:11:36;26.17;;;5.25;;
60722;SDS011;46574;52.818;6.516;2022-12-24T03:14:04;32.50;;;5.38;;
60722;SDS011;46574;52.818;6.516;2022-12-24T03:16:30;28.45;;;6.05;;
60722;SDS011;46574;52.818;6.516;2022-12-24T03:18:55;20.75;;;5.38;;
60722;SDS011;46574;52.818;6.516;2022-12-24T03:21:28;19.25;;;4.63;;
60722;SDS011;46574;52.818;6.516;2022-12-24T03:23:59;24.20;;;5.28;;
60722;SDS011;46574;52.818;6.516;2022-12-24T03:26:26;24.88;;;5.05;;
60722;SDS011;46574;52.818;6.516;2022-12-24T03:28:54;24.30;;;5.65;;
60722;SDS011;46574;52.818;6.516;2022-12-24T03:31:20;21.02;;;5.40;;
60722;SDS011;46574;52.818;6.516;2022-12-24T03:33:46;23.38;;;5.13;;
60722;SDS011;46574;52.818;6.516;2022-12-24T03:36:12;28.63;;;5.40;;
60722;SDS011;46574;52.818;6.516;2022-12-24T03:38:38;25.42;;;5.55;;
60722;SDS011;46574;52.818;6.516;2022-12-24T03:41:04;33.33;;;6.85;;
60722;SDS011;46574;52.818;6.516;2022-12-24T03:43:30;29.35;;;6.15;;
60722;SDS011;46574;52.818;6.516;2022-12-24T03:45:56;23.77;;;5.45;;
60722;SDS011;46574;52.818;6.516;2022-12-24T03:48:21;27.17;;;5.93;;
60722;SDS011;46574;52.818;6.516;2022-12-24T03:50:47;30.63;;;6.05;;
60722;SDS011;46574;52.818;6.516;2022-12-24T03:53:12;28.25;;;5.80;;
60722;SDS011;46574;52.818;6.516;2022-12-24T03:55:38;26.95;;;6.18;;
60722;SDS011;46574;52.818;6.516;2022-12-24T03:58:04;28.40;;;5.55;;
60722;SDS011;46574;52.818;6.516;2022-12-24T04:00:30;29.45;;;5.50;;
60722;SDS011;46574;52.818;6.516;2022-12-24T04:02:56;26.27;;;5.60;;
60722;SDS011;46574;52.818;6.516;2022-12-24T04:05:21;30.20;;;6.63;;
60722;SDS011;46574;52.818;6.516;2022-12-24T04:07:47;31.05;;;7.07;;
60722;SDS011;46574;52.818;6.516;2022-12-24T04:10:13;32.33;;;5.38;;
60722;SDS011;46574;52.818;6.516;2022-12-24T04:12:39;30.15;;;6.07;;
60722;SDS011;46574;52.818;6.516;2022-12-24T04:15:05;29.55;;;5.65;;
60722;SDS011;46574;52.818;6.516;2022-12-24T04:17:32;28.05;;;5.68;;
60722;SDS011;46574;52.818;6.516;2022-12-24T04:19:57;25.95;;;5.85;;
60722;SDS011;46574;52.818;6.516;2022-12-24T04:22:23;31.33;;;6.28;;
60722;SDS011;46574;52.818;6.516;2022-12-24T04:24:49;29.35;;;5.72;;
60722;SDS011;46574;52.818;6.516;2022-12-24T04:27:15;32.03;;;5.95;;
60722;SDS011;46574;52.818;6.516;2022-12-24T04:29:41;32.70;;;5.45;;
60722;SDS011;46574;52.818;6.516;2022-12-24T04:32:06;24.38;;;5.30;;
60722;SDS011;46574;52.818;6.516;2022-12-24T04:34:34;32.85;;;6.28;;
60722;SDS011;46574;52.818;6.516;2022-12-24T04:37:00;29.02;;;6.43;;
60722;SDS011;46574;52.818;6.516;2022-12-24T04:39:26;22.20;;;5.20;;
60722;SDS011;46574;52.818;6.516;2022-12-24T04:41:52;35.22;;;6.28;;
60722;SDS011;46574;52.818;6.516;2022-12-24T04:44:18;27.15;;;6.95;;
60722;SDS011;46574;52.818;6.516;2022-12-24T04:46:43;30.95;;;6.05;;
60722;SDS011;46574;52.818;6.516;2022-12-24T04:49:09;31.60;;;7.60;;
60722;SDS011;46574;52.818;6.516;2022-12-24T04:51:35;38.25;;;6.95;;
60722;SDS011;46574;52.818;6.516;2022-12-24T04:54:01;28.98;;;5.72;;
60722;SDS011;46574;52.818;6.516;2022-12-24T04:56:28;35.53;;;6.70;;
60722;SDS011;46574;52.818;6.516;2022-12-24T04:58:55;23.40;;;5.13;;
60722;SDS011;46574;52.818;6.516;2022-12-24T05:01:28;25.85;;;6.32;;
60722;SDS011;46574;52.818;6.516;2022-12-24T05:03:55;32.03;;;6.47;;
60722;SDS011;46574;52.818;6.516;2022-12-24T05:06:23;26.73;;;5.65;;
60722;SDS011;46574;52.818;6.516;2022-12-24T05:11:21;28.45;;;5.72;;
60722;SDS011;46574;52.818;6.516;2022-12-24T05:13:47;26.30;;;6.38;;
60722;SDS011;46574;52.818;6.516;2022-12-24T05:16:13;31.92;;;6.13;;
60722;SDS011;46574;52.818;6.516;2022-12-24T05:18:40;26.13;;;5.82;;
60722;SDS011;46574;52.818;6.516;2022-12-24T05:21:10;26.48;;;5.50;;
60722;SDS011;46574;52.818;6.516;2022-12-24T05:23:40;39.13;;;6.63;;
60722;SDS011;46574;52.818;6.516;2022-12-24T05:28:54;28.10;;;6.18;;
60722;SDS011;46574;52.818;6.516;2022-12-24T05:31:22;31.52;;;6.57;;
60722;SDS011;46574;52.818;6.516;2022-12-24T05:33:48;34.53;;;6.05;;
60722;SDS011;46574;52.818;6.516;2022-12-24T05:36:14;25.30;;;5.97;;
60722;SDS011;46574;52.818;6.516;2022-12-24T05:38:40;32.75;;;5.90;;
60722;SDS011;46574;52.818;6.516;2022-12-24T05:41:06;27.17;;;5.00;;
60722;SDS011;46574;52.818;6.516;2022-12-24T05:43:33;30.73;;;6.75;;
60722;SDS011;46574;52.818;6.516;2022-12-24T05:46:00;26.15;;;6.22;;
60722;SDS011;46574;52.818;6.516;2022-12-24T05:48:27;35.25;;;6.47;;
60722;SDS011;46574;52.818;6.516;2022-12-24T05:50:53;24.55;;;6.10;;
60722;SDS011;46574;52.818;6.516;2022-12-24T05:53:20;23.83;;;6.00;;
60722;SDS011;46574;52.818;6.516;2022-12-24T05:55:46;29.38;;;6.65;;
60722;SDS011;46574;52.818;6.516;2022-12-24T05:58:12;31.42;;;6.03;;
60722;SDS011;46574;52.818;6.516;2022-12-24T06:00:38;28.00;;;6.82;;
60722;SDS011;46574;52.818;6.516;2022-12-24T06:03:03;33.58;;;7.53;;
60722;SDS011;46574;52.818;6.516;2022-12-24T06:05:29;32.03;;;6.45;;
60722;SDS011;46574;52.818;6.516;2022-12-24T06:07:55;27.08;;;6.03;;
60722;SDS011;46574;52.818;6.516;2022-12-24T06:10:20;31.17;;;6.80;;
60722;SDS011;46574;52.818;6.516;2022-12-24T06:12:46;32.40;;;6.78;;
60722;SDS011;46574;52.818;6.516;2022-12-24T06:15:12;37.83;;;7.60;;
60722;SDS011;46574;52.818;6.516;2022-12-24T06:17:38;37.50;;;7.22;;
60722;SDS011;46574;52.818;6.516;2022-12-24T06:20:03;30.73;;;7.00;;
60722;SDS011;46574;52.818;6.516;2022-12-24T06:22:30;37.25;;;7.03;;
60722;SDS011;46574;52.818;6.516;2022-12-24T06:24:55;32.83;;;6.53;;
60722;SDS011;46574;52.818;6.516;2022-12-24T06:27:21;27.23;;;6.10;;
60722;SDS011;46574;52.818;6.516;2022-12-24T06:29:46;30.23;;;7.03;;
60722;SDS011;46574;52.818;6.516;2022-12-24T06:32:12;29.98;;;5.78;;
60722;SDS011;46574;52.818;6.516;2022-12-24T06:34:38;37.08;;;6.93;;
60722;SDS011;46574;52.818;6.516;2022-12-24T06:37:04;34.58;;;6.43;;
60722;SDS011;46574;52.818;6.516;2022-12-24T06:39:30;29.17;;;6.78;;
60722;SDS011;46574;52.818;6.516;2022-12-24T06:41:55;29.00;;;7.25;;
60722;SDS011;46574;52.818;6.516;2022-12-24T06:44:21;31.08;;;6.63;;
60722;SDS011;46574;52.818;6.516;2022-12-24T06:46:47;30.83;;;7.45;;
60722;SDS011;46574;52.818;6.516;2022-12-24T06:49:12;37.25;;;7.30;;
60722;SDS011;46574;52.818;6.516;2022-12-24T06:51:38;30.98;;;5.97;;
60722;SDS011;46574;52.818;6.516;2022-12-24T06:54:03;31.02;;;5.65;;
60722;SDS011;46574;52.818;6.516;2022-12-24T06:56:29;26.45;;;5.60;;
60722;SDS011;46574;52.818;6.516;2022-12-24T06:58:55;25.50;;;5.43;;
60722;SDS011;46574;52.818;6.516;2022-12-24T07:01:20;29.50;;;7.13;;
60722;SDS011;46574;52.818;6.516;2022-12-24T07:03:48;28.13;;;6.15;;
60722;SDS011;46574;52.818;6.516;2022-12-24T07:06:16;21.23;;;5.60;;
60722;SDS011;46574;52.818;6.516;2022-12-24T07:08:50;22.27;;;5.20;;
60722;SDS011;46574;52.818;6.516;2022-12-24T07:11:16;24.48;;;5.57;;
60722;SDS011;46574;52.818;6.516;2022-12-24T07:13:41;25.90;;;5.43;;
60722;SDS011;46574;52.818;6.516;2022-12-24T07:16:07;22.50;;;5.60;;
60722;SDS011;46574;52.818;6.516;2022-12-24T07:18:33;27.00;;;5.88;;
60722;SDS011;46574;52.818;6.516;2022-12-24T07:20:59;25.48;;;5.43;;
60722;SDS011;46574;52.818;6.516;2022-12-24T07:23:25;26.00;;;6.78;;
60722;SDS011;46574;52.818;6.516;2022-12-24T07:25:51;20.08;;;5.20;;
60722;SDS011;46574;52.818;6.516;2022-12-24T07:28:16;21.58;;;5.35;;
60722;SDS011;46574;52.818;6.516;2022-12-24T07:30:42;26.48;;;6.32;;
60722;SDS011;46574;52.818;6.516;2022-12-24T07:33:08;27.75;;;6.32;;
60722;SDS011;46574;52.818;6.516;2022-12-24T07:35:33;24.55;;;5.47;;
60722;SDS011;46574;52.818;6.516;2022-12-24T07:38:00;26.67;;;6.38;;
60722;SDS011;46574;52.818;6.516;2022-12-24T07:40:26;29.50;;;5.88;;
60722;SDS011;46574;52.818;6.516;2022-12-24T07:42:51;25.02;;;5.57;;
60722;SDS011;46574;52.818;6.516;2022-12-24T07:45:17;28.77;;;6.28;;
60722;SDS011;46574;52.818;6.516;2022-12-24T07:47:42;29.50;;;6.88;;
60722;SDS011;46574;52.818;6.516;2022-12-24T07:50:08;26.08;;;6.10;;
60722;SDS011;46574;52.818;6.516;2022-12-24T07:52:34;26.45;;;5.80;;
60722;SDS011;46574;52.818;6.516;2022-12-24T07:55:00;23.60;;;4.80;;
60722;SDS011;46574;52.818;6.516;2022-12-24T07:57:25;20.35;;;4.75;;
60722;SDS011;46574;52.818;6.516;2022-12-24T07:59:51;28.45;;;5.72;;
60722;SDS011;46574;52.818;6.516;2022-12-24T08:02:17;24.95;;;6.00;;
60722;SDS011;46574;52.818;6.516;2022-12-24T08:04:42;26.90;;;5.97;;
60722;SDS011;46574;52.818;6.516;2022-12-24T08:07:08;26.85;;;5.55;;
60722;SDS011;46574;52.818;6.516;2022-12-24T08:09:34;28.92;;;5.43;;
60722;SDS011;46574;52.818;6.516;2022-12-24T08:12:00;24.88;;;5.15;;
60722;SDS011;46574;52.818;6.516;2022-12-24T08:14:30;33.00;;;6.00;;
60722;SDS011;46574;52.818;6.516;2022-12-24T08:19:21;25.85;;;5.90;;
60722;SDS011;46574;52.818;6.516;2022-12-24T08:21:48;26.10;;;6.10;;
60722;SDS011;46574;52.818;6.516;2022-12-24T08:24:14;30.85;;;6.07;;
60722;SDS011;46574;52.818;6.516;2022-12-24T08:26:40;27.63;;;5.55;;
60722;SDS011;46574;52.818;6.516;2022-12-24T08:29:06;34.05;;;6.38;;
60722;SDS011;46574;52.818;6.516;2022-12-24T08:31:32;29.75;;;6.70;;
60722;SDS011;46574;52.818;6.516;2022-12-24T08:34:01;35.03;;;6.47;;
60722;SDS011;46574;52.818;6.516;2022-12-24T08:36:30;26.75;;;6.18;;
60722;SDS011;46574;52.818;6.516;2022-12-24T08:38:57;28.95;;;6.07;;
60722;SDS011;46574;52.818;6.516;2022-12-24T08:41:23;27.73;;;6.40;;
60722;SDS011;46574;52.818;6.516;2022-12-24T08:43:48;26.60;;;5.90;;
60722;SDS011;46574;52.818;6.516;2022-12-24T08:46:14;28.35;;;6.38;;
60722;SDS011;46574;52.818;6.516;2022-12-24T08:48:40;25.15;;;5.97;;
60722;SDS011;46574;52.818;6.516;2022-12-24T08:51:09;26.13;;;6.78;;
60722;SDS011;46574;52.818;6.516;2022-12-24T08:53:35;22.63;;;5.93;;
60722;SDS011;46574;52.818;6.516;2022-12-24T08:56:02;26.92;;;7.03;;
60722;SDS011;46574;52.818;6.516;2022-12-24T08:58:30;27.17;;;7.32;;
60722;SDS011;46574;52.818;6.516;2022-12-24T09:00:56;29.00;;;7.47;;
60722;SDS011;46574;52.818;6.516;2022-12-24T09:03:23;31.45;;;7.97;;
60722;SDS011;46574;52.818;6.516;2022-12-24T09:05:48;31.80;;;7.10;;
60722;SDS011;46574;52.818;6.516;2022-12-24T09:08:14;40.58;;;8.02;;
60722;SDS011;46574;52.818;6.516;2022-12-24T09:10:40;33.95;;;7.82;;
60722;SDS011;46574;52.818;6.516;2022-12-24T09:13:05;28.02;;;7.03;;
60722;SDS011;46574;52.818;6.516;2022-12-24T09:15:31;29.85;;;6.72;;
60722;SDS011;46574;52.818;6.516;2022-12-24T09:17:57;24.65;;;6.80;;
60722;SDS011;46574;52.818;6.516;2022-12-24T09:20:22;34.05;;;7.60;;
60722;SDS011;46574;52.818;6.516;2022-12-24T09:22:48;37.33;;;8.75;;
60722;SDS011;46574;52.818;6.516;2022-12-24T09:25:14;29.83;;;7.50;;
60722;SDS011;46574;52.818;6.516;2022-12-24T09:27:40;32.65;;;7.95;;
60722;SDS011;46574;52.818;6.516;2022-12-24T09:30:06;28.90;;;8.65;;
60722;SDS011;46574;52.818;6.516;2022-12-24T09:32:32;27.25;;;6.90;;
60722;SDS011;46574;52.818;6.516;2022-12-24T09:34:58;33.80;;;8.25;;
60722;SDS011;46574;52.818;6.516;2022-12-24T09:37:24;25.88;;;7.03;;
60722;SDS011;46574;52.818;6.516;2022-12-24T09:39:49;33.97;;;8.07;;
60722;SDS011;46574;52.818;6.516;2022-12-24T09:42:50;32.13;;;7.82;;
60722;SDS011;46574;52.818;6.516;2022-12-24T09:45:27;30.85;;;7.22;;
60722;SDS011;46574;52.818;6.516;2022-12-24T09:48:01;25.15;;;6.70;;
60722;SDS011;46574;52.818;6.516;2022-12-24T09:50:56;28.55;;;6.93;;
60722;SDS011;46574;52.818;6.516;2022-12-24T09:55:57;22.13;;;5.53;;
60722;SDS011;46574;52.818;6.516;2022-12-24T09:58:30;21.60;;;5.63;;
60722;SDS011;46574;52.818;6.516;2022-12-24T10:01:01;20.38;;;4.93;;
60722;SDS011;46574;52.818;6.516;2022-12-24T10:03:27;22.13;;;5.22;;
60722;SDS011;46574;52.818;6.516;2022-12-24T10:06:02;20.80;;;5.82;;
60722;SDS011;46574;52.818;6.516;2022-12-24T10:08:51;22.27;;;6.75;;
60722;SDS011;46574;52.818;6.516;2022-12-24T10:17:27;23.58;;;5.68;;
60722;SDS011;46574;52.818;6.516;2022-12-24T10:19:47;20.73;;;5.32;;
60722;SDS011;46574;52.818;6.516;2022-12-24T10:22:25;23.80;;;5.32;;
60722;SDS011;46574;52.818;6.516;2022-12-24T10:25:05;23.63;;;5.28;;
60722;SDS011;46574;52.818;6.516;2022-12-24T10:27:47;19.88;;;4.63;;
60722;SDS011;46574;52.818;6.516;2022-12-24T10:30:17;20.17;;;4.63;;
60722;SDS011;46574;52.818;6.516;2022-12-24T10:32:48;22.45;;;4.80;;
60722;SDS011;46574;52.818;6.516;2022-12-24T10:37:50;29.05;;;6.32;;
60722;SDS011;46574;52.818;6.516;2022-12-24T10:40:25;25.67;;;5.05;;
60722;SDS011;46574;52.818;6.516;2022-12-24T10:42:58;27.58;;;5.40;;
60722;SDS011;46574;52.818;6.516;2022-12-24T10:45:25;22.30;;;5.82;;
60722;SDS011;46574;52.818;6.516;2022-12-24T10:48:00;28.33;;;6.60;;
60722;SDS011;46574;52.818;6.516;2022-12-24T10:50:30;23.58;;;5.75;;
60722;SDS011;46574;52.818;6.516;2022-12-24T10:53:03;28.98;;;6.53;;
60722;SDS011;46574;52.818;6.516;2022-12-24T10:55:38;27.63;;;6.85;;
60722;SDS011;46574;52.818;6.516;2022-12-24T10:58:05;32.72;;;7.47;;
60722;SDS011;46574;52.818;6.516;2022-12-24T11:00:40;39.42;;;8.45;;
60722;SDS011;46574;52.818;6.516;2022-12-24T11:03:14;33.20;;;8.57;;
60722;SDS011;46574;52.818;6.516;2022-12-24T11:05:50;33.97;;;9.27;;
60722;SDS011;46574;52.818;6.516;2022-12-24T11:08:25;29.55;;;7.75;;
60722;SDS011;46574;52.818;6.516;2022-12-24T11:11:04;36.25;;;7.63;;
60722;SDS011;46574;52.818;6.516;2022-12-24T11:18:56;28.20;;;6.72;;
60722;SDS011;46574;52.818;6.516;2022-12-24T11:21:24;33.13;;;7.10;;
60722;SDS011;46574;52.818;6.516;2022-12-24T11:23:56;26.92;;;7.40;;
60722;SDS011;46574;52.818;6.516;2022-12-24T11:26:28;29.55;;;7.15;;
60722;SDS011;46574;52.818;6.516;2022-12-24T11:31:35;30.23;;;7.07;;
60722;SDS011;46574;52.818;6.516;2022-12-24T11:36:52;24.92;;;6.47;;
60722;SDS011;46574;52.818;6.516;2022-12-24T11:41:48;26.92;;;5.57;;
60722;SDS011;46574;52.818;6.516;2022-12-24T11:44:24;30.05;;;6.00;;
60722;SDS011;46574;52.818;6.516;2022-12-24T11:46:51;22.55;;;6.68;;
60722;SDS011;46574;52.818;6.516;2022-12-24T11:52:03;29.02;;;6.20;;
60722;SDS011;46574;52.818;6.516;2022-12-24T11:55:18;29.85;;;6.07;;
60722;SDS011;46574;52.818;6.516;2022-12-24T12:00:36;24.17;;;6.13;;
60722;SDS011;46574;52.818;6.516;2022-12-24T12:03:05;31.58;;;6.10;;
60722;SDS011;46574;52.818;6.516;2022-12-24T12:05:55;25.00;;;5.30;;
60722;SDS011;46574;52.818;6.516;2022-12-24T12:08:24;26.30;;;5.57;;
60722;SDS011;46574;52.818;6.516;2022-12-24T12:10:52;19.10;;;4.40;;
60722;SDS011;46574;52.818;6.516;2022-12-24T12:13:25;26.08;;;6.25;;
60722;SDS011;46574;52.818;6.516;2022-12-24T12:16:03;26.27;;;5.18;;
60722;SDS011;46574;52.818;6.516;2022-12-24T12:18:36;18.43;;;4.73;;
60722;SDS011;46574;52.818;6.516;2022-12-24T12:21:13;21.65;;;5.30;;
60722;SDS011;46574;52.818;6.516;2022-12-24T12:23:48;23.13;;;4.45;;
60722;SDS011;46574;52.818;6.516;2022-12-24T12:26:27;21.88;;;5.80;;
60722;SDS011;46574;52.818;6.516;2022-12-24T12:31:26;17.67;;;4.75;;
60722;SDS011;46574;52.818;6.516;2022-12-24T12:34:05;22.05;;;5.43;;
60722;SDS011;46574;52.818;6.516;2022-12-24T12:36:50;17.67;;;4.32;;
60722;SDS011;46574;52.818;6.516;2022-12-24T12:39:22;15.82;;;3.97;;
60722;SDS011;46574;52.818;6.516;2022-12-24T12:47:34;23.38;;;5.20;;
60722;SDS011;46574;52.818;6.516;2022-12-24T12:52:50;21.15;;;5.13;;
60722;SDS011;46574;52.818;6.516;2022-12-24T12:57:55;21.15;;;4.63;;
60722;SDS011;46574;52.818;6.516;2022-12-24T13:00:25;23.75;;;5.18;;
60722;SDS011;46574;52.818;6.516;2022-12-24T13:11:35;18.95;;;4.72;;
60722;SDS011;46574;52.818;6.516;2022-12-24T13:20:03;18.40;;;4.22;;
60722;SDS011;46574;52.818;6.516;2022-12-24T13:22:45;16.85;;;4.68;;
60722;SDS011;46574;52.818;6.516;2022-12-24T13:25:24;13.70;;;3.95;;
60722;SDS011;46574;52.818;6.516;2022-12-24T13:28:16;14.95;;;3.78;;
60722;SDS011;46574;52.818;6.516;2022-12-24T13:33:10;17.63;;;4.28;;
60722;SDS011;46574;52.818;6.516;2022-12-24T13:38:50;15.27;;;4.25;;
60722;SDS011;46574;52.818;6.516;2022-12-24T13:49:18;16.17;;;5.10;;
60722;SDS011;46574;52.818;6.516;2022-12-24T13:51:50;14.32;;;3.55;;
60722;SDS011;46574;52.818;6.516;2022-12-24T13:54:24;15.68;;;4.45;;
60722;SDS011;46574;52.818;6.516;2022-12-24T13:56:52;21.85;;;3.80;;
60722;SDS011;46574;52.818;6.516;2022-12-24T13:59:33;17.00;;;4.13;;
60722;SDS011;46574;52.818;6.516;2022-12-24T14:02:01;14.18;;;3.72;;
60722;SDS011;46574;52.818;6.516;2022-12-24T14:04:32;16.63;;;4.47;;
60722;SDS011;46574;52.818;6.516;2022-12-24T14:07:01;17.77;;;4.80;;
60722;SDS011;46574;52.818;6.516;2022-12-24T14:09:28;18.02;;;4.50;;
60722;SDS011;46574;52.818;6.516;2022-12-24T14:17:01;17.27;;;4.13;;
60722;SDS011;46574;52.818;6.516;2022-12-24T14:19:46;14.32;;;3.72;;
60722;SDS011;46574;52.818;6.516;2022-12-24T14:27:39;15.27;;;4.22;;
60722;SDS011;46574;52.818;6.516;2022-12-24T14:30:19;15.95;;;3.45;;
60722;SDS011;46574;52.818;6.516;2022-12-24T14:32:50;13.63;;;3.15;;
60722;SDS011;46574;52.818;6.516;2022-12-24T14:38:11;13.13;;;3.53;;
60722;SDS011;46574;52.818;6.516;2022-12-24T14:40:51;15.65;;;3.90;;
60722;SDS011;46574;52.818;6.516;2022-12-24T14:43:39;16.10;;;3.55;;
60722;SDS011;46574;52.818;6.516;2022-12-24T14:47:00;10.45;;;2.95;;
60722;SDS011;46574;52.818;6.516;2022-12-24T14:54:39;17.50;;;3.67;;
60722;SDS011;46574;52.818;6.516;2022-12-24T15:15:50;13.82;;;4.10;;
60722;SDS011;46574;52.818;6.516;2022-12-24T15:18:19;11.57;;;3.93;;
60722;SDS011;46574;52.818;6.516;2022-12-24T15:20:50;14.57;;;3.80;;
60722;SDS011;46574;52.818;6.516;2022-12-24T15:25:45;18.10;;;4.45;;
60722;SDS011;46574;52.818;6.516;2022-12-24T15:28:21;19.55;;;4.60;;
60722;SDS011;46574;52.818;6.516;2022-12-24T15:30:48;16.77;;;4.50;;
60722;SDS011;46574;52.818;6.516;2022-12-24T15:33:33;16.05;;;4.38;;
60722;SDS011;46574;52.818;6.516;2022-12-24T15:36:01;12.43;;;3.80;;
60722;SDS011;46574;52.818;6.516;2022-12-24T15:38:32;12.13;;;4.07;;
60722;SDS011;46574;52.818;6.516;2022-12-24T15:41:05;17.98;;;4.53;;
60722;SDS011;46574;52.818;6.516;2022-12-24T15:43:53;14.85;;;4.60;;
60722;SDS011;46574;52.818;6.516;2022-12-24T15:46:23;15.85;;;3.58;;
60722;SDS011;46574;52.818;6.516;2022-12-24T15:48:51;12.25;;;3.83;;
60722;SDS011;46574;52.818;6.516;2022-12-24T15:51:26;15.48;;;4.47;;
60722;SDS011;46574;52.818;6.516;2022-12-24T15:54:03;13.13;;;3.33;;
60722;SDS011;46574;52.818;6.516;2022-12-24T15:56:34;16.77;;;4.13;;
60722;SDS011;46574;52.818;6.516;2022-12-24T16:01:47;15.63;;;4.15;;
60722;SDS011;46574;52.818;6.516;2022-12-24T16:04:26;14.52;;;4.30;;
60722;SDS011;46574;52.818;6.516;2022-12-24T16:09:35;15.60;;;4.85;;
60722;SDS011;46574;52.818;6.516;2022-12-24T16:12:40;16.67;;;3.80;;
60722;SDS011;46574;52.818;6.516;2022-12-24T16:14:58;19.67;;;4.85;;
60722;SDS011;46574;52.818;6.516;2022-12-24T16:17:25;19.10;;;5.57;;
60722;SDS011;46574;52.818;6.516;2022-12-24T16:19:55;20.35;;;4.70;;
60722;SDS011;46574;52.818;6.516;2022-12-24T16:22:24;16.40;;;4.53;;
60722;SDS011;46574;52.818;6.516;2022-12-24T16:25:41;14.38;;;4.05;;
60722;SDS011;46574;52.818;6.516;2022-12-24T16:27:42;13.70;;;4.00;;
60722;SDS011;46574;52.818;6.516;2022-12-24T16:30:10;23.50;;;4.50;;
60722;SDS011;46574;52.818;6.516;2022-12-24T16:32:36;15.77;;;4.33;;
60722;SDS011;46574;52.818;6.516;2022-12-24T16:35:04;13.10;;;3.53;;
60722;SDS011;46574;52.818;6.516;2022-12-24T16:37:32;18.80;;;4.07;;
60722;SDS011;46574;52.818;6.516;2022-12-24T16:39:58;17.13;;;4.82;;
60722;SDS011;46574;52.818;6.516;2022-12-24T16:42:24;18.58;;;4.75;;
60722;SDS011;46574;52.818;6.516;2022-12-24T16:45:09;16.23;;;4.13;;
60722;SDS011;46574;52.818;6.516;2022-12-24T16:47:35;18.52;;;5.20;;
60722;SDS011;46574;52.818;6.516;2022-12-24T16:50:02;14.73;;;4.57;;
60722;SDS011;46574;52.818;6.516;2022-12-24T16:52:30;15.15;;;4.63;;
60722;SDS011;46574;52.818;6.516;2022-12-24T16:54:58;20.88;;;5.10;;
60722;SDS011;46574;52.818;6.516;2022-12-24T16:57:24;17.65;;;5.30;;
60722;SDS011;46574;52.818;6.516;2022-12-24T16:59:50;16.77;;;4.68;;
60722;SDS011;46574;52.818;6.516;2022-12-24T17:02:17;19.83;;;5.28;;
60722;SDS011;46574;52.818;6.516;2022-12-24T17:04:45;17.50;;;5.37;;
60722;SDS011;46574;52.818;6.516;2022-12-24T17:07:12;25.60;;;6.40;;
60722;SDS011;46574;52.818;6.516;2022-12-24T17:09:40;13.27;;;5.40;;
60722;SDS011;46574;52.818;6.516;2022-12-24T17:12:05;17.48;;;6.20;;
60722;SDS011;46574;52.818;6.516;2022-12-24T17:14:31;12.63;;;5.40;;